createdAt,value
2022-11-10T00:00:46.901Z,58.38
2022-11-10T00:03:32.826Z,58.29
2022-11-10T00:06:18.707Z,58.27
2022-11-10T00:09:04.493Z,58.33
2022-11-10T00:11:50.427Z,58.28
2022-11-10T00:14:54.906Z,58.03
2022-11-10T00:17:40.495Z,58.38
2022-11-10T00:20:26.530Z,58.29
2022-11-10T00:23:12.411Z,58.12
2022-11-10T00:25:59.032Z,58.15
2022-11-10T00:28:45.839Z,58.03
2022-11-10T00:31:31.699Z,58.36
2022-11-10T00:34:17.795Z,58.15
2022-11-10T00:37:03.758Z,58.46
2022-11-10T00:39:49.840Z,58.08
2022-11-10T00:42:35.814Z,57.91
2022-11-10T00:45:21.802Z,58.07
2022-11-10T00:48:07.722Z,58.20
2022-11-10T00:50:53.781Z,58.26
2022-11-10T00:53:39.717Z,58.11
2022-11-10T00:56:26.112Z,58.04
2022-11-10T00:59:12.191Z,58.28
2022-11-10T01:01:58.039Z,58.20
2022-11-10T01:04:43.926Z,58.16
2022-11-10T01:07:29.789Z,58.33
2022-11-10T01:10:16.353Z,58.21
2022-11-10T01:13:02.615Z,58.13
2022-11-10T01:15:48.204Z,58.35
2022-11-10T01:18:35.619Z,58.20
2022-11-10T01:21:22.489Z,58.10
2022-11-10T01:24:08.714Z,58.40
2022-11-10T01:26:54.536Z,58.50
2022-11-10T01:29:40.678Z,58.15
2022-11-10T01:32:26.400Z,58.10
2022-11-10T01:35:12.365Z,58.30
2022-11-10T01:37:58.782Z,58.28
2022-11-10T01:40:45.547Z,58.36
2022-11-10T01:43:31.923Z,58.33
2022-11-10T01:46:17.497Z,58.30
2022-11-10T01:49:04.685Z,58.25
2022-11-10T01:52:01.840Z,58.33
2022-11-10T01:54:49.791Z,58.43
2022-11-10T01:57:37.041Z,58.22
2022-11-10T02:00:23.118Z,58.48
2022-11-10T02:03:17.900Z,58.24
2022-11-10T02:06:05.085Z,58.37
2022-11-10T02:08:52.420Z,58.51
2022-11-10T02:11:40.076Z,58.43
2022-11-10T02:14:26.723Z,58.36
2022-11-10T02:17:12.968Z,58.35
2022-11-10T02:20:00.944Z,58.45
2022-11-10T02:22:46.888Z,58.56
2022-11-10T02:25:33.229Z,58.53
2022-11-10T02:28:18.874Z,58.48
2022-11-10T02:31:06.071Z,58.63
2022-11-10T02:33:51.948Z,58.67
2022-11-10T02:36:38.229Z,58.54
2022-11-10T02:39:24.066Z,58.66
2022-11-10T02:42:10.536Z,58.47
2022-11-10T02:44:57.230Z,58.61
2022-11-10T02:47:43.121Z,58.63
2022-11-10T02:50:29.298Z,58.43
2022-11-10T02:53:15.594Z,58.45
2022-11-10T02:56:01.555Z,58.67
2022-11-10T02:58:47.699Z,58.62
2022-11-10T03:01:33.837Z,58.69
2022-11-10T03:04:19.718Z,58.65
2022-11-10T03:07:05.669Z,58.68
2022-11-10T03:09:51.922Z,58.45
2022-11-10T03:12:37.639Z,58.54
2022-11-10T03:15:24.300Z,58.64
2022-11-10T03:18:10.061Z,58.64
2022-11-10T03:20:55.800Z,58.48
2022-11-10T03:23:41.725Z,58.81
2022-11-10T03:26:27.934Z,58.75
2022-11-10T03:29:13.761Z,58.68
2022-11-10T03:31:59.659Z,58.82
2022-11-10T03:34:45.646Z,58.87
2022-11-10T03:37:31.435Z,58.84
2022-11-10T03:40:17.393Z,58.55
2022-11-10T03:43:03.419Z,58.81
2022-11-10T03:45:49.230Z,58.72
2022-11-10T03:48:35.498Z,58.90
2022-11-10T03:51:22.372Z,59.00
2022-11-10T03:54:08.324Z,58.88
2022-11-10T03:56:54.631Z,58.94
2022-11-10T03:59:40.811Z,59.07
2022-11-10T04:02:26.885Z,58.94
2022-11-10T04:05:31.200Z,59.01
2022-11-10T04:08:36.503Z,58.97
2022-11-10T04:11:41.235Z,59.11
2022-11-10T04:14:45.492Z,59.02
2022-11-10T04:17:31.485Z,59.01
2022-11-10T04:20:18.253Z,59.17
2022-11-10T04:23:23.153Z,59.00
2022-11-10T04:26:29.640Z,59.20
2022-11-10T04:29:18.358Z,59.03
2022-11-10T04:32:04.683Z,59.09
2022-11-10T04:34:50.526Z,59.12
2022-11-10T04:37:37.340Z,59.07
2022-11-10T04:40:23.576Z,59.01
2022-11-10T04:43:09.470Z,58.97
2022-11-10T04:45:55.806Z,59.10
2022-11-10T04:48:41.502Z,59.29
2022-11-10T04:51:38.917Z,59.18
2022-11-10T04:54:24.901Z,59.16
2022-11-10T04:57:10.563Z,59.37
2022-11-10T04:59:56.791Z,59.20
2022-11-10T05:02:42.536Z,59.29
2022-11-10T05:05:28.806Z,59.15
2022-11-10T05:08:15.127Z,59.29
2022-11-10T05:11:01.192Z,59.22
2022-11-10T05:13:47.135Z,59.20
2022-11-10T05:16:33.268Z,59.28
2022-11-10T05:19:19.136Z,59.44
2022-11-10T05:22:07.037Z,59.33
2022-11-10T05:24:52.857Z,59.31
2022-11-10T05:27:38.838Z,59.17
2022-11-10T05:30:24.907Z,59.18
2022-11-10T05:33:11.288Z,59.24
2022-11-10T05:35:57.282Z,59.39
2022-11-10T05:38:43.970Z,59.39
2022-11-10T05:41:30.121Z,59.33
2022-11-10T05:44:15.815Z,59.42
2022-11-10T05:47:01.671Z,59.33
2022-11-10T05:49:47.640Z,59.18
2022-11-10T05:52:33.578Z,59.30
2022-11-10T05:55:24.762Z,59.37
2022-11-10T05:58:10.854Z,59.61
2022-11-10T06:00:57.328Z,59.53
2022-11-10T06:03:43.696Z,59.51
2022-11-10T06:06:30.009Z,59.28
2022-11-10T06:09:15.428Z,59.61
2022-11-10T06:12:03.547Z,59.41
2022-11-10T06:14:49.959Z,59.57
2022-11-10T06:17:38.193Z,59.51
2022-11-10T06:20:24.952Z,59.35
2022-11-10T06:23:11.890Z,59.54
2022-11-10T06:25:57.477Z,59.53
2022-11-10T06:28:43.385Z,59.45
2022-11-10T06:31:29.524Z,59.49
2022-11-10T06:34:15.251Z,59.62
2022-11-10T06:37:01.289Z,59.47
2022-11-10T06:39:47.618Z,59.53
2022-11-10T06:42:34.165Z,59.55
2022-11-10T06:45:20.331Z,59.61
2022-11-10T06:48:14.221Z,59.61
2022-11-10T06:51:01.041Z,59.49
2022-11-10T06:53:47.671Z,59.50
2022-11-10T06:56:33.400Z,59.61
2022-11-10T06:59:19.291Z,59.55
2022-11-10T07:02:05.180Z,59.46
2022-11-10T07:04:51.105Z,59.62
2022-11-10T07:07:36.945Z,59.75
2022-11-10T07:10:22.698Z,59.59
2022-11-10T07:13:10.223Z,59.57
2022-11-10T07:15:56.054Z,59.63
2022-11-10T07:18:42.019Z,59.77
2022-11-10T07:21:28.197Z,59.72
2022-11-10T07:24:13.989Z,59.57
2022-11-10T07:27:00.263Z,59.60
2022-11-10T07:29:45.778Z,59.64
2022-11-10T07:32:31.806Z,59.50
2022-11-10T07:35:17.753Z,59.69
2022-11-10T07:38:09.285Z,59.62
2022-11-10T07:40:56.002Z,59.89
2022-11-10T07:43:41.888Z,59.72
2022-11-10T07:46:27.708Z,59.56
2022-11-10T07:49:13.659Z,59.79
2022-11-10T07:51:59.491Z,59.53
2022-11-10T07:54:45.187Z,59.78
2022-11-10T07:57:30.979Z,59.43
2022-11-10T08:00:17.570Z,59.48
2022-11-10T08:03:05.714Z,59.61
2022-11-10T08:05:51.953Z,60.08
2022-11-10T08:08:37.879Z,60.41
2022-11-10T08:11:23.626Z,60.64
2022-11-10T08:14:10.002Z,60.91
2022-11-10T08:16:55.650Z,61.50
2022-11-10T08:19:41.956Z,61.17
2022-11-10T08:22:27.624Z,61.27
2022-11-10T08:25:13.689Z,61.32
2022-11-10T08:28:01.499Z,61.37
2022-11-10T08:30:48.912Z,61.88
2022-11-10T08:33:34.883Z,61.81
2022-11-10T08:36:20.967Z,61.50
2022-11-10T08:39:06.760Z,61.33
2022-11-10T08:41:52.568Z,61.75
2022-11-10T08:44:38.497Z,61.12
2022-11-10T08:47:24.723Z,61.85
2022-11-10T08:50:10.622Z,62.25
2022-11-10T08:52:56.722Z,62.32
2022-11-10T08:55:44.121Z,62.35
2022-11-10T08:58:30.262Z,62.65
2022-11-10T09:01:16.032Z,62.08
2022-11-10T09:04:01.913Z,61.82
2022-11-10T09:06:48.049Z,61.68
2022-11-10T09:09:33.933Z,61.68
2022-11-10T09:12:19.795Z,61.96
2022-11-10T09:15:06.553Z,61.74
2022-11-10T09:17:52.369Z,61.79
2022-11-10T09:20:38.923Z,60.94
2022-11-10T09:23:25.243Z,60.57
2022-11-10T09:26:11.949Z,60.50
2022-11-10T09:28:58.160Z,60.06
2022-11-10T09:31:45.241Z,60.22
2022-11-10T09:34:30.965Z,59.95
2022-11-10T09:37:16.937Z,59.77
2022-11-10T09:40:03.390Z,59.74
2022-11-10T09:42:53.678Z,59.74
2022-11-10T09:45:47.182Z,59.52
2022-11-10T09:48:38.021Z,59.40
2022-11-10T09:51:30.520Z,59.39
2022-11-10T09:54:37.297Z,59.54
2022-11-10T09:57:26.139Z,59.45
2022-11-10T10:00:17.315Z,59.88
2022-11-10T10:03:05.446Z,60.44
2022-11-10T10:05:57.107Z,60.17
2022-11-10T10:08:54.582Z,60.46
2022-11-10T10:11:43.530Z,60.43
2022-11-10T10:14:42.497Z,60.37
2022-11-10T10:17:41.377Z,60.31
2022-11-10T10:20:55.578Z,60.52
2022-11-10T10:24:21.052Z,60.50
2022-11-10T10:27:15.687Z,60.41
2022-11-10T10:30:06.341Z,60.71
2022-11-10T10:33:00.849Z,60.32
2022-11-10T10:35:48.941Z,60.53
2022-11-10T10:38:39.629Z,60.30
2022-11-10T10:41:31.836Z,60.35
2022-11-10T10:44:19.676Z,60.47
2022-11-10T10:47:05.486Z,60.44
2022-11-10T10:49:51.346Z,60.52
2022-11-10T10:52:37.314Z,60.38
2022-11-10T10:55:29.462Z,60.45
2022-11-10T10:58:27.863Z,60.48
2022-11-10T11:01:16.315Z,60.46
2022-11-10T11:04:25.164Z,60.37
2022-11-10T11:07:25.189Z,60.24
2022-11-10T11:10:19.831Z,60.36
2022-11-10T11:13:24.884Z,60.25
2022-11-10T11:16:12.715Z,60.22
2022-11-10T11:18:59.119Z,60.46
2022-11-10T11:22:03.680Z,60.17
2022-11-10T11:25:00.877Z,60.14
2022-11-10T11:28:00.469Z,60.07
2022-11-10T11:31:10.563Z,60.21
2022-11-10T11:34:05.542Z,60.16
2022-11-10T11:36:51.477Z,59.98
2022-11-10T11:40:14.770Z,60.06
2022-11-10T11:43:27.879Z,60.05
2022-11-10T11:46:19.589Z,60.04
2022-11-10T11:49:49.525Z,59.97
2022-11-10T11:52:48.788Z,60.03
2022-11-10T11:55:43.663Z,60.17
2022-11-10T11:58:29.747Z,60.21
2022-11-10T12:01:34.423Z,60.33
2022-11-10T12:05:10.809Z,60.23
2022-11-10T12:08:22.682Z,60.16
2022-11-10T12:11:14.299Z,60.08
2022-11-10T12:14:12.802Z,60.18
2022-11-10T12:17:12.398Z,60.27
2022-11-10T12:20:20.339Z,60.20
2022-11-10T12:23:43.435Z,60.17
2022-11-10T12:26:38.749Z,60.15
2022-11-10T12:29:24.346Z,60.29
2022-11-10T12:32:17.573Z,60.18
2022-11-10T12:35:22.627Z,60.25
2022-11-10T12:38:16.728Z,60.26
2022-11-10T12:41:09.323Z,60.33
2022-11-10T12:44:02.749Z,60.28
2022-11-10T12:46:53.940Z,60.26
2022-11-10T12:49:49.002Z,60.96
2022-11-10T12:52:45.836Z,66.01
2022-11-10T12:55:43.014Z,66.92
2022-11-10T12:58:28.910Z,66.91
2022-11-10T13:01:18.703Z,67.12
2022-11-10T13:04:05.837Z,67.82
2022-11-10T13:06:56.239Z,68.16
2022-11-10T13:09:44.538Z,68.54
2022-11-10T13:12:30.577Z,68.85
2022-11-10T13:15:35.433Z,69.00
2022-11-10T13:18:44.577Z,65.22
2022-11-10T13:21:52.166Z,64.26
2022-11-10T13:24:40.032Z,62.52
2022-11-10T13:27:38.161Z,63.82
2022-11-10T13:30:59.650Z,64.18
2022-11-10T13:34:12.970Z,65.21
2022-11-10T13:37:00.218Z,64.46
2022-11-10T13:39:46.289Z,63.55
2022-11-10T13:42:32.205Z,63.79
2022-11-10T13:45:40.208Z,62.99
2022-11-10T13:48:55.834Z,62.72
2022-11-10T13:52:10.354Z,62.64
2022-11-10T13:54:59.117Z,63.60
2022-11-10T13:57:53.465Z,64.35
2022-11-10T14:00:39.568Z,66.45
2022-11-10T14:03:53.290Z,67.81
2022-11-10T14:06:45.631Z,67.91
2022-11-10T14:09:35.054Z,68.46
2022-11-10T14:12:20.855Z,68.72
2022-11-10T14:15:18.837Z,68.72
2022-11-10T14:18:17.602Z,69.09
2022-11-10T14:21:05.305Z,69.11
2022-11-10T14:23:57.812Z,69.24
2022-11-10T14:26:50.896Z,69.20
2022-11-10T14:29:40.057Z,69.46
2022-11-10T14:32:26.614Z,69.35
2022-11-10T14:35:29.615Z,69.48
2022-11-10T14:38:26.542Z,69.51
2022-11-10T14:41:19.381Z,69.47
2022-11-10T14:44:11.435Z,69.71
2022-11-10T14:47:12.626Z,69.53
2022-11-10T14:50:07.808Z,69.53
2022-11-10T14:53:14.622Z,69.92
2022-11-10T14:56:02.658Z,69.85
2022-11-10T14:58:49.937Z,69.79
2022-11-10T15:01:39.697Z,69.78
2022-11-10T15:04:33.395Z,69.76
2022-11-10T15:07:21.937Z,70.00
2022-11-10T15:10:25.466Z,69.87
2022-11-10T15:13:14.489Z,69.91
2022-11-10T15:16:28.007Z,69.83
2022-11-10T15:19:38.272Z,69.97
2022-11-10T15:22:29.929Z,69.88
2022-11-10T15:25:19.019Z,69.87
2022-11-10T15:28:13.933Z,70.00
2022-11-10T15:31:02.922Z,70.16
2022-11-10T15:33:51.713Z,70.15
2022-11-10T15:36:41.316Z,70.02
2022-11-10T15:39:28.098Z,69.90
2022-11-10T15:42:24.784Z,70.16
2022-11-10T15:45:10.889Z,70.16
2022-11-10T15:47:56.758Z,69.75
2022-11-10T15:50:45.578Z,69.57
2022-11-10T15:53:32.687Z,70.09
2022-11-10T15:56:21.424Z,70.46
2022-11-10T15:59:09.758Z,70.60
2022-11-10T16:01:56.022Z,70.46
2022-11-10T16:04:42.207Z,70.27
2022-11-10T16:07:27.968Z,70.34
2022-11-10T16:10:14.114Z,70.05
2022-11-10T16:12:59.894Z,70.15
2022-11-10T16:15:45.754Z,70.29
2022-11-10T16:18:31.830Z,69.73
2022-11-10T16:24:10.726Z,69.53
2022-11-10T16:26:56.936Z,68.67
2022-11-10T16:29:43.276Z,69.25
2022-11-10T16:32:29.456Z,69.55
2022-11-10T16:35:15.556Z,69.18
2022-11-10T16:38:02.292Z,69.32
2022-11-10T16:41:10.125Z,69.36
2022-11-10T16:43:55.770Z,69.58
2022-11-10T16:46:43.939Z,69.60
2022-11-10T16:49:35.292Z,69.34
2022-11-10T16:52:22.654Z,68.89
2022-11-10T16:55:13.873Z,69.25
2022-11-10T16:57:59.794Z,69.28
2022-11-10T17:00:48.362Z,69.53
2022-11-10T17:03:43.113Z,69.35
2022-11-10T17:06:29.995Z,69.63
2022-11-10T17:09:19.994Z,69.81
2022-11-10T17:12:05.843Z,70.07
2022-11-10T17:14:51.960Z,69.73
2022-11-10T17:17:38.427Z,69.80
2022-11-10T17:20:34.271Z,70.15
2022-11-10T17:23:26.256Z,70.62
2022-11-10T17:26:17.502Z,68.84
2022-11-10T17:29:03.297Z,68.92
2022-11-10T17:31:50.434Z,69.62
2022-11-10T17:34:36.517Z,68.34
2022-11-10T17:37:22.438Z,69.58
2022-11-10T17:40:17.155Z,69.41
2022-11-10T17:43:02.942Z,69.22
2022-11-10T17:45:49.345Z,69.18
2022-11-10T17:48:35.309Z,69.29
2022-11-10T17:51:22.222Z,69.51
2022-11-10T17:54:15.325Z,69.53
2022-11-10T17:57:00.937Z,69.51
2022-11-10T17:59:47.062Z,69.74
2022-11-10T18:02:33.117Z,69.67
2022-11-10T18:05:19.102Z,69.70
2022-11-10T18:08:05.156Z,69.84
2022-11-10T18:10:52.594Z,69.75
2022-11-10T18:13:39.937Z,69.37
2022-11-10T18:16:25.641Z,69.44
2022-11-10T18:19:11.646Z,69.77
2022-11-10T18:21:57.679Z,69.66
2022-11-10T18:24:43.603Z,69.65
2022-11-10T18:27:29.484Z,69.66
2022-11-10T18:30:15.570Z,69.65
2022-11-10T18:33:02.811Z,69.66
2022-11-10T18:35:48.742Z,69.79
2022-11-10T18:38:34.672Z,69.30
2022-11-10T18:41:38.889Z,69.72
2022-11-10T18:44:25.192Z,69.61
2022-11-10T18:47:13.200Z,68.50
2022-11-10T18:49:59.027Z,69.49
2022-11-10T18:52:45.747Z,69.47
2022-11-10T18:55:31.634Z,69.29
2022-11-10T18:58:17.458Z,69.38
2022-11-10T19:01:11.208Z,69.80
2022-11-10T19:03:57.657Z,69.92
2022-11-10T19:06:44.149Z,69.71
2022-11-10T19:09:30.030Z,68.89
2022-11-10T19:12:16.171Z,69.07
2022-11-10T19:15:01.999Z,69.28
2022-11-10T19:17:47.984Z,69.50
2022-11-10T19:20:37.599Z,69.54
2022-11-10T19:23:24.062Z,69.47
2022-11-10T19:26:17.873Z,69.52
2022-11-10T19:29:07.474Z,69.45
2022-11-10T19:31:53.816Z,69.36
2022-11-10T19:34:39.450Z,69.47
2022-11-10T19:37:26.900Z,69.59
2022-11-10T19:40:15.889Z,69.61
2022-11-10T19:43:01.731Z,69.55
2022-11-10T19:45:47.840Z,69.48
2022-11-10T19:48:34.829Z,69.44
2022-11-10T19:51:20.636Z,69.46
2022-11-10T19:54:06.987Z,69.57
2022-11-10T19:56:52.567Z,69.48
2022-11-10T19:59:38.367Z,69.47
2022-11-10T20:02:24.208Z,69.30
2022-11-10T20:05:13.026Z,69.07
2022-11-10T20:08:15.368Z,69.10
2022-11-10T20:11:08.459Z,69.07
2022-11-10T20:14:03.750Z,69.19
2022-11-10T20:16:49.725Z,69.01
2022-11-10T20:19:40.816Z,69.20
2022-11-10T20:22:27.365Z,69.19
2022-11-10T20:25:13.390Z,68.85
2022-11-10T20:28:03.432Z,68.95
2022-11-10T20:30:49.166Z,69.03
2022-11-10T20:33:35.643Z,68.94
2022-11-10T20:36:28.514Z,68.96
2022-11-10T20:39:14.473Z,68.83
2022-11-10T20:42:00.470Z,68.71
2022-11-10T20:44:46.292Z,68.70
2022-11-10T20:47:32.692Z,68.67
2022-11-10T20:50:23.993Z,68.79
2022-11-10T20:53:10.064Z,68.39
2022-11-10T20:55:58.048Z,68.67
2022-11-10T20:58:45.115Z,68.85
2022-11-10T21:01:32.720Z,68.68
2022-11-10T21:04:18.787Z,69.03
2022-11-10T21:07:05.064Z,68.79
2022-11-10T21:09:50.996Z,68.67
2022-11-10T21:12:51.962Z,68.58
2022-11-10T21:15:39.690Z,68.53
2022-11-10T21:18:43.746Z,68.45
2022-11-10T21:21:34.601Z,68.55
2022-11-10T21:24:21.091Z,68.28
2022-11-10T21:27:07.091Z,68.22
2022-11-10T21:29:53.024Z,68.15
2022-11-10T21:32:39.157Z,68.29
2022-11-10T21:35:26.152Z,68.01
2022-11-10T21:38:14.328Z,68.12
2022-11-10T21:41:00.241Z,67.94
2022-11-10T21:43:46.323Z,68.01
2022-11-10T21:46:32.435Z,67.78
2022-11-10T21:49:18.218Z,67.40
2022-11-10T21:52:04.261Z,66.80
2022-11-10T21:54:49.994Z,67.28
2022-11-10T21:57:36.376Z,67.75
2022-11-10T22:00:22.313Z,67.90
2022-11-10T22:03:08.103Z,68.01
2022-11-10T22:05:54.161Z,67.84
2022-11-10T22:08:41.424Z,67.90
2022-11-10T22:11:45.600Z,68.28
2022-11-10T22:14:50.182Z,68.20
2022-11-10T22:17:54.545Z,68.19
2022-11-10T22:20:40.245Z,68.49
2022-11-10T22:23:45.099Z,68.39
2022-11-10T22:26:30.719Z,68.36
2022-11-10T22:29:17.160Z,68.32
2022-11-10T22:32:03.641Z,68.34
2022-11-10T22:34:49.679Z,68.42
2022-11-10T22:37:35.754Z,68.14
2022-11-10T22:40:40.117Z,68.63
2022-11-10T22:43:44.477Z,68.29
2022-11-10T22:46:35.616Z,68.18
2022-11-10T22:49:23.810Z,68.21
2022-11-10T22:52:10.240Z,68.35
2022-11-10T22:54:58.455Z,68.05
2022-11-10T22:57:44.106Z,68.10
2022-11-10T23:00:30.077Z,68.45
2022-11-10T23:03:16.017Z,68.02
2022-11-10T23:06:02.088Z,67.93
2022-11-10T23:08:48.174Z,67.84
2022-11-10T23:11:34.379Z,67.84
2022-11-10T23:14:20.003Z,67.36
2022-11-10T23:17:05.919Z,67.83
2022-11-10T23:19:52.087Z,67.84
2022-11-10T23:22:37.946Z,67.77
2022-11-10T23:25:24.140Z,67.57
2022-11-10T23:28:10.069Z,67.33
2022-11-10T23:31:22.678Z,67.59
2022-11-10T23:34:08.666Z,67.46
2022-11-10T23:36:54.665Z,67.16
2022-11-10T23:39:40.465Z,67.26
2022-11-10T23:42:27.798Z,67.18
2022-11-10T23:45:14.662Z,67.10
2022-11-10T23:48:05.642Z,67.07
2022-11-10T23:50:52.468Z,67.11
2022-11-10T23:53:38.339Z,67.03
2022-11-10T23:56:24.249Z,67.14
2022-11-10T23:59:09.951Z,67.03
